createdAt,value
2023-04-20T00:00:15.916Z,1.70
2023-04-20T00:05:18.692Z,1.85
2023-04-20T00:10:22.802Z,1.45
2023-04-20T00:15:25.592Z,1.40
2023-04-20T00:20:28.915Z,2.53
2023-04-20T00:25:33.249Z,1.58
2023-04-20T00:30:36.195Z,1.58
2023-04-20T00:35:40.906Z,1.77
2023-04-20T00:40:48.807Z,1.52
2023-04-20T00:45:52.102Z,2.28
2023-04-20T00:50:54.941Z,1.70
2023-04-20T00:55:59.806Z,1.75
2023-04-20T01:01:02.819Z,1.88
2023-04-20T01:06:06.649Z,2.13
2023-04-20T01:11:10.801Z,2.10
2023-04-20T01:16:13.802Z,1.98
2023-04-20T01:21:17.993Z,1.73
2023-04-20T01:26:24.781Z,1.73
2023-04-20T01:31:27.625Z,2.10
2023-04-20T01:36:31.080Z,2.30
2023-04-20T01:41:35.414Z,1.90
2023-04-20T01:46:39.181Z,2.28
2023-04-20T01:51:43.159Z,2.53
2023-04-20T01:56:47.263Z,1.95
2023-04-20T02:01:51.733Z,2.03
2023-04-20T02:06:54.517Z,2.30
2023-04-20T02:11:58.672Z,2.30
2023-04-20T02:17:01.993Z,2.20
2023-04-20T02:22:04.864Z,2.45
2023-04-20T02:27:08.948Z,2.60
2023-04-20T02:32:11.766Z,2.42
2023-04-20T02:37:14.794Z,2.42
2023-04-20T02:42:20.066Z,2.45
2023-04-20T02:47:24.440Z,2.38
2023-04-20T02:52:29.608Z,2.60
2023-04-20T02:57:36.394Z,2.42
2023-04-20T03:02:39.988Z,2.28
2023-04-20T03:07:43.573Z,2.63
2023-04-20T03:12:49.494Z,2.75
2023-04-20T03:18:10.728Z,2.70
2023-04-20T03:23:14.011Z,2.75
2023-04-20T03:28:18.711Z,3.08
2023-04-20T03:33:21.988Z,2.70
2023-04-20T03:38:24.887Z,2.90
2023-04-20T03:43:29.833Z,3.03
2023-04-20T03:48:33.746Z,3.38
2023-04-20T03:53:38.968Z,3.88
2023-04-20T03:58:46.000Z,3.47
2023-04-20T04:03:53.035Z,4.38
2023-04-20T04:08:56.118Z,4.03
2023-04-20T04:14:00.985Z,3.75
2023-04-20T04:19:05.289Z,3.95
2023-04-20T04:24:09.369Z,3.67
2023-04-20T04:29:20.179Z,4.30
2023-04-20T04:34:24.004Z,4.30
2023-04-20T04:39:29.131Z,4.53
2023-04-20T04:44:42.706Z,3.60
2023-04-20T04:49:49.811Z,4.13
2023-04-20T04:54:52.685Z,4.47
2023-04-20T04:59:56.856Z,4.93
2023-04-20T05:04:59.578Z,3.90
2023-04-20T05:10:02.333Z,4.88
2023-04-20T05:15:07.422Z,4.90
2023-04-20T05:20:11.947Z,4.18
2023-04-20T05:25:14.789Z,4.95
2023-04-20T05:30:21.883Z,4.45
2023-04-20T05:35:24.963Z,4.87
2023-04-20T05:40:27.806Z,5.00
2023-04-20T05:45:33.088Z,5.43
2023-04-20T05:50:35.970Z,4.97
2023-04-20T05:55:38.994Z,5.07
2023-04-20T06:00:43.128Z,5.53
2023-04-20T06:05:45.974Z,5.93
2023-04-20T06:10:48.749Z,5.38
2023-04-20T06:15:54.114Z,5.78
2023-04-20T06:20:57.118Z,5.97
2023-04-20T06:25:59.847Z,6.65
2023-04-20T06:31:04.708Z,6.35
2023-04-20T06:36:08.042Z,5.55
2023-04-20T06:41:10.767Z,5.55
2023-04-20T06:46:14.912Z,5.82
2023-04-20T06:51:17.719Z,6.55
2023-04-20T06:56:20.518Z,5.90
2023-04-20T07:01:24.724Z,5.45
2023-04-20T07:06:28.474Z,6.07
2023-04-20T07:11:31.289Z,6.30
2023-04-20T07:16:35.549Z,6.15
2023-04-20T07:21:38.544Z,5.93
2023-04-20T07:26:41.459Z,6.30
2023-04-20T07:31:45.771Z,6.20
2023-04-20T07:36:48.722Z,6.35
2023-04-20T07:41:51.881Z,7.00
2023-04-20T07:46:57.574Z,6.25
2023-04-20T07:52:15.047Z,7.47
2023-04-20T07:57:19.568Z,7.10
2023-04-20T08:02:24.430Z,7.82
2023-04-20T08:07:27.307Z,7.60
2023-04-20T08:12:30.187Z,7.55
2023-04-20T08:17:34.536Z,8.23
2023-04-20T08:22:37.371Z,7.72
2023-04-20T08:27:40.109Z,8.02
2023-04-20T08:32:44.674Z,7.93
2023-04-20T08:37:47.544Z,8.30
2023-04-20T08:42:50.280Z,8.15
2023-04-20T08:47:55.390Z,8.65
2023-04-20T08:52:58.704Z,8.80
2023-04-20T08:58:01.548Z,8.30
2023-04-20T09:03:05.795Z,8.73
2023-04-20T09:08:10.936Z,7.75
2023-04-20T09:13:22.689Z,7.45
2023-04-20T09:18:26.824Z,7.63
2023-04-20T09:23:29.575Z,7.03
2023-04-20T09:28:38.889Z,6.97
2023-04-20T09:33:43.081Z,7.07
2023-04-20T09:38:46.011Z,7.22
2023-04-20T09:43:49.053Z,6.65
2023-04-20T09:48:54.045Z,6.65
2023-04-20T09:53:58.273Z,6.85
2023-04-20T09:59:02.803Z,6.88
2023-04-20T10:04:11.046Z,6.95
2023-04-20T10:09:24.413Z,6.43
2023-04-20T10:14:27.310Z,6.15
2023-04-20T10:19:41.673Z,5.35
2023-04-20T10:24:44.462Z,6.30
2023-04-20T10:29:47.742Z,6.53
2023-04-20T10:35:02.228Z,6.70
2023-04-20T10:40:07.639Z,6.30
2023-04-20T10:45:11.840Z,6.38
2023-04-20T10:50:18.159Z,6.05
2023-04-20T10:55:21.889Z,5.53
2023-04-20T11:00:27.930Z,5.85
2023-04-20T11:05:32.205Z,5.43
2023-04-20T11:10:44.308Z,5.65
2023-04-20T11:15:47.332Z,5.50
2023-04-20T11:20:56.355Z,5.80
2023-04-20T11:25:59.223Z,5.85
2023-04-20T11:31:02.307Z,5.85
2023-04-20T11:36:06.957Z,6.00
2023-04-20T11:41:09.698Z,7.10
2023-04-20T11:46:17.260Z,5.88
2023-04-20T11:51:21.900Z,6.75
2023-04-20T11:56:24.777Z,6.53
2023-04-20T12:01:27.632Z,6.80
2023-04-20T12:06:32.686Z,6.88
2023-04-20T12:11:35.528Z,7.60
2023-04-20T12:16:38.268Z,7.40
2023-04-20T12:21:42.507Z,6.97
2023-04-20T12:26:46.003Z,6.68
2023-04-20T12:31:48.846Z,7.15
2023-04-20T12:36:53.153Z,7.55
2023-04-20T12:41:56.940Z,8.18
2023-04-20T12:46:59.858Z,8.07
2023-04-20T12:52:04.938Z,8.30
2023-04-20T12:57:08.927Z,8.32
2023-04-20T13:02:12.487Z,8.70
2023-04-20T13:07:16.656Z,8.40
2023-04-20T13:12:19.912Z,8.63
2023-04-20T13:17:22.682Z,8.65
2023-04-20T13:22:26.809Z,9.05
2023-04-20T13:27:29.534Z,9.43
2023-04-20T13:32:33.065Z,9.10
2023-04-20T13:37:39.100Z,9.10
2023-04-20T13:42:42.210Z,9.55
2023-04-20T13:47:45.285Z,8.88
2023-04-20T13:52:51.860Z,9.25
2023-04-20T13:57:54.634Z,10.32
2023-04-20T14:02:57.545Z,9.68
2023-04-20T14:08:04.397Z,10.05
2023-04-20T14:13:10.567Z,10.32
2023-04-20T14:18:13.619Z,9.82
2023-04-20T14:23:17.871Z,9.68
2023-04-20T14:28:27.766Z,9.75
2023-04-20T14:33:31.335Z,9.80
2023-04-20T14:38:41.521Z,9.50
2023-04-20T14:43:44.782Z,9.33
2023-04-20T14:48:49.058Z,9.00
2023-04-20T14:53:53.398Z,9.82
2023-04-20T14:58:57.180Z,9.52
2023-04-20T15:04:00.171Z,10.15
2023-04-20T15:09:04.812Z,10.00
2023-04-20T15:14:07.863Z,14.35
2023-04-20T15:19:10.733Z,9.73
2023-04-20T15:24:15.043Z,11.02
2023-04-20T15:29:18.098Z,9.70
2023-04-20T15:34:21.347Z,9.13
2023-04-20T15:39:26.072Z,10.10
2023-04-20T15:44:29.516Z,9.70
2023-04-20T15:49:37.227Z,10.30
2023-04-20T15:54:41.395Z,11.07
2023-04-20T15:59:44.245Z,10.15
2023-04-20T16:04:47.653Z,8.95
2023-04-20T16:09:54.168Z,8.40
2023-04-20T16:14:57.317Z,8.13
2023-04-20T16:20:00.265Z,8.68
2023-04-20T16:25:06.055Z,8.07
2023-04-20T16:30:13.137Z,6.97
2023-04-20T16:35:16.029Z,7.07
2023-04-20T16:40:20.880Z,7.70
2023-04-20T16:45:23.761Z,7.57
2023-04-20T16:50:27.702Z,7.35
2023-04-20T16:55:32.920Z,7.45
2023-04-20T17:00:36.427Z,8.55
2023-04-20T17:05:41.927Z,8.45
2023-04-20T17:10:46.702Z,7.97
2023-04-20T17:15:49.888Z,8.30
2023-04-20T17:20:53.104Z,8.65
2023-04-20T17:25:57.234Z,8.73
2023-04-20T17:31:00.287Z,8.10
2023-04-20T17:36:03.174Z,8.05
2023-04-20T17:41:07.458Z,8.48
2023-04-20T17:46:10.436Z,8.90
2023-04-20T17:51:14.101Z,8.75
2023-04-20T17:56:18.707Z,8.57
2023-04-20T18:01:21.643Z,8.38
2023-04-20T18:06:25.989Z,7.35
2023-04-20T18:11:30.608Z,7.70
2023-04-20T18:16:33.882Z,8.68
2023-04-20T18:21:36.688Z,8.15
2023-04-20T18:26:40.978Z,8.65
2023-04-20T18:31:45.332Z,8.00
2023-04-20T18:36:48.329Z,8.15
2023-04-20T18:41:52.520Z,8.30
2023-04-20T18:46:55.355Z,9.55
2023-04-20T18:51:58.279Z,9.13
2023-04-20T18:57:02.832Z,7.70
2023-04-20T19:02:05.936Z,9.05
2023-04-20T19:07:08.840Z,8.40
2023-04-20T19:12:13.114Z,7.88
2023-04-20T19:17:15.989Z,8.65
2023-04-20T19:22:18.760Z,8.52
2023-04-20T19:27:23.036Z,8.73
2023-04-20T19:32:26.070Z,7.70
2023-04-20T19:37:29.508Z,9.25
2023-04-20T19:42:33.667Z,9.27
2023-04-20T19:47:37.210Z,8.75
2023-04-20T19:52:40.148Z,8.30
2023-04-20T19:57:44.295Z,8.70
2023-04-20T20:02:47.218Z,9.05
2023-04-20T20:07:52.311Z,8.23
2023-04-20T20:12:56.509Z,8.52
2023-04-20T20:17:59.888Z,8.52
2023-04-20T20:23:02.995Z,9.18
2023-04-20T20:28:07.120Z,8.23
2023-04-20T20:33:10.130Z,10.23
2023-04-20T20:38:13.077Z,8.82
2023-04-20T20:43:18.335Z,8.98
2023-04-20T20:48:21.551Z,9.30
2023-04-20T20:53:24.612Z,9.82
2023-04-20T20:58:28.975Z,9.65
2023-04-20T21:03:31.985Z,8.98
2023-04-20T21:08:35.193Z,9.45
2023-04-20T21:13:39.331Z,9.45
2023-04-20T21:18:42.139Z,9.30
2023-04-20T21:23:45.003Z,10.02
2023-04-20T21:28:49.164Z,9.63
2023-04-20T21:33:52.132Z,9.35
2023-04-20T21:38:55.000Z,10.18
2023-04-20T21:43:59.160Z,10.90
2023-04-20T21:49:02.474Z,9.93
2023-04-20T21:54:05.369Z,10.88
2023-04-20T21:59:09.552Z,10.80
2023-04-20T22:04:12.489Z,10.95
2023-04-20T22:09:17.871Z,10.05
2023-04-20T22:14:22.380Z,11.05
2023-04-20T22:19:25.118Z,10.75
2023-04-20T22:24:30.471Z,11.18
2023-04-20T22:29:34.595Z,11.30
2023-04-20T22:34:37.360Z,10.45
2023-04-20T22:39:40.149Z,10.30
2023-04-20T22:44:44.217Z,10.30
2023-04-20T22:49:48.962Z,10.50
2023-04-20T22:54:51.832Z,10.60
2023-04-20T22:59:56.048Z,10.30
2023-04-20T23:04:58.900Z,10.70
2023-04-20T23:10:03.920Z,10.88
2023-04-20T23:15:09.360Z,11.30
2023-04-20T23:20:14.178Z,11.35
2023-04-20T23:25:17.478Z,11.68
2023-04-20T23:30:26.520Z,11.20
2023-04-20T23:35:29.435Z,11.02
2023-04-20T23:40:34.451Z,11.05
2023-04-20T23:45:40.172Z,12.25
2023-04-20T23:50:45.060Z,11.07
2023-04-20T23:55:51.740Z,10.90
